Dauntless Aviation
Airports Europe Switzerland
LSGG
GVA

Geneva Cointrin International Airport

Geneva, SWITZERLAND

Airport Info
Suggest Updated Information for this Airport

Location

Latitude / Longitude: 46°14'17"N / 6°6'32"E
  46°14.286'N / 6°6.54'E
  46.2381 / 6.1090

Nearby radio navigation aids

GLA GLAND NDB. 209.1° 11.7nm from GLA to field.
GVA GENEVA COINTRIN VOR/DME. 225.8° 1.4nm from GVA to field.

Runway Information

Runway 05 /23

Dimensions: 12795 x 164 ft.
Surface: ASP
 
Runway 05
Runway 23
Latitude: 46.227839 46.250353
Longitude: 6.093947 6.126994
Elevation: 1411 ft. 1411 ft.
Runway true heading: 44.2 224.2
 

Instrument Procedures

  Aerodrome Ground Movement Chart - Area North
  Area Chart - Transit Routes THROUGH GENEVA TMA/ DESTINATION LFLB and LFLP

Departure Procedures

  Area Chart - Routing AFTER KONIL / SPR / MOLUS Departures
  Aerodrome Chart
  Aircraft Parking/Docking Chart - Area South

STARs (Standard Terminal Arrivals)

  STAR - STAR Rwy 22 - RNAV (GNSS) BELUS - KINES - BANKO
  STAR - STAR Rwy 04/22 - NON RNAV DJL - FRI
  STAR - STAR Rwy 04/22 - NON RNAV BELUS - BANKO
  STAR - STAR Rwy 04 - RNAV (GNSS) LUSAR - DJL - AKITO
  STAR - STAR Rwy 04 - RNAV (GNSS) BENOT- ULMES
  STAR - STAR Rwy 04 - RNAV (GNSS) BELUS - KINES - BANKO
  STAR - STAR Rwy 22 - RNAV (GNSS) LUSAR - DJL - AKITO
  STAR - STAR Rwy 22 - RNAV (GNSS) BENOT - ULMES

IAPs (Instrument Approach Procedures)

  RNAV (GNSS) Rwy 22
  RNAV (GNSS) Rwy 04
  MNM OBST CLR Chart (Based On Vectoring CRITERIA)
  Aerodrome Information (Textual)
  Aerodrome Obstacle Chart - Type A - Rwy 04
  Aerodrome Obstacle Chart - Type A - Rwy 22
  Precision Approach Terrain Chart - Rwy 22 - Dimensions and Elevations in Metres
  ILS Rwy 22 CAT II and CAT III
  LOC Rwy 22
  VOR Rwy 22
  SRA Rwy 22
  ILS Rwy 04
  LOC Rwy 04
  VOR Rwy 04
  SRA Rwy 04

Departure Procedures

  SID - SID Rwy 04 - RNAV
  SID - SID Rwy 22 - RNAV
  SID - SID Rwy 04 - NON RNAV
  SID - SID Rwy 22 - NON RNAV
Satellite photo at:
Airport distance calculator
From:
Weather Reports

METAR

LSGG

LSGG 230720Z VRB03KT 9999 FEW010 14/13 Q1019 NOSIG
LFLP
19.3nm S
LFLP 230730Z AUTO VRB01KT 9999 BKN004 OVC066 14/13 Q1019 BECMG SCT030
LFLB
37.7nm S
LFLB 230730Z AUTO VRB01KT 9999 OVC012 15/14 Q1019 BECMG SCT035

TAF

LSGG
TAF LSGG 230525Z 2306/2412 VRB03KT 9999 FEW005 SCT030 BKN050 TX20/2315Z TN13/2365Z TN08/2406Z TEMPO 2406/2410 SHRA
LFLP
19.3nm S
TAF AMD LFLP 230513Z 2305/2403 VRB03KT 9999 BKN020 PROB30 TEMPO 2305/2308 BKN006 BECMG 2308/2310 30005KT SCT030 BECMG 2318/2320 VRB02KT CAVOK
LFLB
37.7nm S
TAF LFLB 230500Z 2306/2406 VRB03KT 9999 SCT015 OVC030 TEMPO 2306/2308 BKN008 BECMG 2309/2311 36006KT SCT035 BECMG 2318/2320 VRB02KT CAVOK
Safelog

 

Dauntless Aviation

© 2007-2019 Dauntless Aviation, all rights reserved
Information provided via PilotNav comes from a variety of official and unofficial data sources. As errors are possible, do not use PilotNav for primary flight planning purposes. Verify any information that you receive via PilotNav with current and canonical charts and other official documents. The material in this database is subject to database copyrights held by Dauntless Aviation and may not be copied without the express permission of Dauntless Aviation - licenses for use of part of all of this data are available for purchase; enquire via the Dauntless Aviation helpdesk. A number of mechanisms and markers exist in the database to protect against and identify infringement / copyright. Automated queries against this website are stictly prohibited, and all activity is logged and analyzed.